METAR Data
IDs: Format: Raw Decoded Include TAF

Data at: 2043 UTC 02 Aug 2021

EGPN 022020Z VRB03KT 9999 FEW045 13/11 Q1013